Time;durP1;ratioP1;P1;durP2;ratioP2;P2;SDS_P1;SDS_P2;PMS_P1;PMS_P2;Temp;Humidity;BMP_temperature;BMP_pressure;BME280_temperature;BME280_humidity;BME280_pressure;Samples;Min_cycle;Max_cycle;Signal;HPM_P1;HPM_P2
2023/12/27 00:00:25;;;;;;;7.65;2.08;;;;;;;10.31;54.09;94212.84;5083181;28;20028;-79
2023/12/27 00:02:51;;;;;;;6.53;2.47;;;;;;;10.32;54.28;94209.88;5083033;28;20058;-79
2023/12/27 00:05:16;;;;;;;6.35;1.75;;;;;;;10.30;54.34;94211.25;5082780;28;20030;-79
2023/12/27 00:07:41;;;;;;;10.07;2.17;;;;;;;10.28;54.45;94208.06;5083062;28;20023;-78
2023/12/27 00:10:07;;;;;;;7.00;2.08;;;;;;;10.31;54.04;94212.84;5082864;28;20016;-78
2023/12/27 00:12:33;;;;;;;8.95;2.40;;;;;;;10.23;54.65;94228.41;5082922;28;20023;-78
2023/12/27 00:14:58;;;;;;;10.30;2.67;;;;;;;10.27;54.33;94227.81;5083162;28;20066;-78
2023/12/27 00:17:24;;;;;;;8.05;2.03;;;;;;;10.26;54.39;94224.38;5082978;28;20024;-78
2023/12/27 00:19:49;;;;;;;10.02;2.50;;;;;;;10.29;54.11;94233.66;5082829;28;20235;-78
2023/12/27 00:22:15;;;;;;;5.40;1.83;;;;;;;10.29;53.99;94233.66;5082814;28;20311;-78
2023/12/27 00:24:41;;;;;;;7.85;2.33;;;;;;;10.26;54.33;94235.03;5082629;28;20032;-77
2023/12/27 00:27:06;;;;;;;10.10;2.42;;;;;;;10.25;54.12;94247.56;5082660;28;20051;-78
2023/12/27 00:29:32;;;;;;;6.13;2.10;;;;;;;10.24;54.49;94247.88;5082799;28;20021;-78
2023/12/27 00:31:57;;;;;;;6.15;2.15;;;;;;;10.18;54.53;94246.41;5082756;28;20017;-78
2023/12/27 00:34:23;;;;;;;5.95;2.40;;;;;;;10.21;54.64;94257.22;5082198;28;20021;-78
2023/12/27 00:36:48;;;;;;;7.82;3.45;;;;;;;10.16;54.78;94244.03;5081887;28;20028;-78
2023/12/27 00:39:14;;;;;;;8.65;3.00;;;;;;;10.19;54.80;94248.75;5082633;28;20257;-78
2023/12/27 00:41:40;;;;;;;5.55;1.95;;;;;;;10.14;54.78;94256.88;5082403;28;20261;-78
2023/12/27 00:44:05;;;;;;;8.07;1.70;;;;;;;10.18;55.10;94257.84;5082234;28;20068;-78
2023/12/27 00:46:31;;;;;;;8.00;2.45;;;;;;;10.17;54.87;94261.59;5082389;28;20066;-77
2023/12/27 00:48:56;;;;;;;6.60;1.90;;;;;;;10.12;55.22;94266.25;5081398;28;20032;-78
2023/12/27 00:51:22;;;;;;;5.80;1.98;;;;;;;10.14;55.05;94272.84;5082464;28;20028;-78
2023/12/27 00:53:48;;;;;;;6.18;2.15;;;;;;;10.17;55.06;94274.91;5082370;28;20231;-78
2023/12/27 00:56:14;;;;;;;8.13;2.67;;;;;;;10.21;54.77;94278.53;5082418;28;20040;-78
2023/12/27 00:58:40;;;;;;;7.53;2.33;;;;;;;10.16;54.93;94268.00;5082086;28;20331;-78
2023/12/27 01:01:05;;;;;;;11.10;3.33;;;;;;;10.19;54.67;94280.72;5082222;28;20067;-78
2023/12/27 01:03:31;;;;;;;10.75;4.63;;;;;;;10.14;53.13;94280.06;5082290;28;20047;-78
2023/12/27 01:05:56;;;;;;;10.82;4.50;;;;;;;9.95;53.21;94283.66;5082356;28;20126;-78
2023/12/27 01:08:22;;;;;;;11.20;4.25;;;;;;;9.88;53.28;94298.44;5082197;28;20091;-78
2023/12/27 01:10:47;;;;;;;12.18;4.40;;;;;;;9.62;54.24;94278.44;5082250;28;20092;-78
2023/12/27 01:13:12;;;;;;;17.92;4.68;;;;;;;9.43;54.42;94291.84;5081923;28;20275;-78
2023/12/27 01:15:38;;;;;;;14.10;5.32;;;;;;;9.16;55.59;94287.28;5082220;28;20159;-77
2023/12/27 01:18:03;;;;;;;13.65;4.97;;;;;;;9.19;55.50;94291.22;5082127;28;20311;-78
2023/12/27 01:20:29;;;;;;;10.50;4.25;;;;;;;9.10;55.97;94293.78;5082245;28;20082;-78
2023/12/27 01:22:54;;;;;;;12.18;4.35;;;;;;;8.95;56.67;94296.69;5082288;28;20023;-78
2023/12/27 01:25:20;;;;;;;12.43;4.15;;;;;;;8.81;56.85;94288.66;5081965;28;20024;-78
2023/12/27 01:27:46;;;;;;;10.13;4.25;;;;;;;8.79;57.83;94296.13;5082157;28;20024;-78
2023/12/27 01:30:14;;;;;;;10.00;2.88;;;;;;;8.76;59.59;94288.75;5081905;28;20066;-78
2023/12/27 01:32:40;;;;;;;8.98;2.60;;;;;;;8.86;60.18;94288.59;5081994;28;20388;-78
2023/12/27 01:35:05;;;;;;;9.85;2.83;;;;;;;9.15;59.89;94291.00;5082028;28;20028;-77
2023/12/27 01:37:32;;;;;;;7.18;2.00;;;;;;;9.41;59.44;94286.03;5081963;28;20100;-78
2023/12/27 01:39:57;;;;;;;10.77;2.55;;;;;;;9.47;59.08;94285.94;5080796;28;20024;-78
2023/12/27 01:42:23;;;;;;;8.88;2.58;;;;;;;9.55;59.01;94304.66;5081968;28;20023;-78
2023/12/27 01:44:49;;;;;;;6.32;2.20;;;;;;;9.55;58.99;94315.31;5080599;28;20099;-78
2023/12/27 01:47:14;;;;;;;9.77;2.83;;;;;;;9.64;58.64;94294.09;5083866;28;20020;-78
2023/12/27 01:49:40;;;;;;;9.23;2.72;;;;;;;9.68;58.52;94303.06;5085516;28;20051;-78
2023/12/27 01:52:09;;;;;;;12.45;2.22;;;;;;;9.63;59.22;94311.16;5085508;28;20025;-77
2023/12/27 01:54:34;;;;;;;9.48;2.65;;;;;;;9.64;59.01;94307.41;5085613;28;20025;-78
2023/12/27 01:57:00;;;;;;;13.75;2.80;;;;;;;9.65;59.62;94327.63;5085622;28;20043;-78
2023/12/27 01:59:26;;;;;;;7.70;2.70;;;;;;;9.66;59.76;94325.75;5084058;28;20032;-78
2023/12/27 02:01:52;;;;;;;8.82;2.70;;;;;;;9.63;60.16;94321.81;5085162;28;20040;-78
2023/12/27 02:04:17;;;;;;;9.63;2.40;;;;;;;9.64;60.28;94302.88;5084162;28;20284;-79
2023/12/27 02:06:43;;;;;;;7.03;2.42;;;;;;;9.68;60.53;94307.63;5085236;28;20020;-79
2023/12/27 02:09:09;;;;;;;6.55;2.28;;;;;;;9.61;60.72;94298.16;5085154;28;20021;-79
2023/12/27 02:11:35;;;;;;;13.40;2.30;;;;;;;9.69;60.69;94309.19;5085163;28;20020;-79
2023/12/27 02:14:01;;;;;;;7.57;2.05;;;;;;;9.69;61.21;94319.81;5085096;28;20079;-79
2023/12/27 02:16:27;;;;;;;11.60;2.50;;;;;;;9.64;61.41;94328.72;5085021;28;20046;-78
2023/12/27 02:18:53;;;;;;;8.68;2.63;;;;;;;9.66;61.53;94341.72;5084946;28;20024;-77
2023/12/27 02:21:18;;;;;;;10.65;3.00;;;;;;;9.71;61.48;94323.78;5084960;28;20016;-77
2023/12/27 02:23:48;;;;;;;14.15;2.85;;;;;;;9.64;61.13;94318.84;5084899;28;20039;-77
2023/12/27 02:26:13;;;;;;;9.45;2.83;;;;;;;9.68;61.33;94323.59;5084739;28;20341;-78
2023/12/27 02:28:39;;;;;;;9.93;2.47;;;;;;;9.60;61.73;94311.75;5084781;28;20044;-79
2023/12/27 02:31:04;;;;;;;7.28;2.70;;;;;;;9.60;61.44;94325.84;5084647;28;20307;-78
2023/12/27 02:33:29;;;;;;;11.07;2.60;;;;;;;9.58;61.76;94337.88;5083681;28;20024;-78
2023/12/27 02:35:55;;;;;;;13.43;2.53;;;;;;;9.57;61.65;94310.47;5084721;28;20068;-78
2023/12/27 02:38:20;;;;;;;9.90;1.98;;;;;;;9.56;61.78;94313.41;5084767;28;20043;-78
2023/12/27 02:40:46;;;;;;;12.40;2.42;;;;;;;9.58;61.66;94308.59;5084669;28;20338;-78
2023/12/27 02:43:11;;;;;;;10.70;2.50;;;;;;;9.54;61.68;94312.94;5084617;28;20054;-78
2023/12/27 02:45:36;;;;;;;9.57;2.05;;;;;;;9.50;61.71;94307.41;5084216;28;20021;-78
2023/12/27 02:48:02;;;;;;;13.32;2.47;;;;;;;9.59;61.95;94336.78;5084337;28;20024;-78
2023/12/27 02:50:27;;;;;;;9.02;2.65;;;;;;;9.58;62.24;94329.88;5100307;28;20017;-78
2023/12/27 02:52:53;;;;;;;6.03;2.17;;;;;;;9.52;62.49;94320.41;5084473;28;20023;-78
2023/12/27 02:55:18;;;;;;;16.58;2.35;;;;;;;9.61;62.52;94339.97;5084286;28;20012;-78
2023/12/27 02:57:43;;;;;;;7.68;2.88;;;;;;;9.65;62.58;94335.63;5099322;28;20333;-79
2023/12/27 03:00:10;;;;;;;7.40;2.45;;;;;;;9.55;62.51;94327.81;5083881;28;20095;-79
2023/12/27 03:02:35;;;;;;;7.85;2.30;;;;;;;9.54;62.70;94350.19;5084151;28;20017;-78
2023/12/27 03:05:00;;;;;;;7.47;2.83;;;;;;;9.54;62.93;94345.66;5083984;28;20032;-79
2023/12/27 03:07:26;;;;;;;9.02;2.47;;;;;;;9.57;62.85;94354.94;5083223;28;20180;-78
2023/12/27 03:09:51;;;;;;;8.45;2.53;;;;;;;9.45;62.70;94347.41;5082755;28;20107;-78
2023/12/27 03:12:17;;;;;;;10.40;2.65;;;;;;;9.47;62.61;94363.88;5084046;28;20044;-78
2023/12/27 03:14:42;;;;;;;7.22;2.40;;;;;;;9.51;62.53;94350.78;5083879;28;20016;-79
2023/12/27 03:17:07;;;;;;;10.10;2.88;;;;;;;9.50;62.84;94357.97;5083812;28;20028;-78
2023/12/27 03:19:33;;;;;;;11.90;2.35;;;;;;;9.47;62.97;94353.25;5082776;28;20028;-78
2023/12/27 03:21:58;;;;;;;10.32;2.30;;;;;;;9.48;63.03;94362.00;5082795;28;20107;-77
2023/12/27 03:24:23;;;;;;;7.90;2.83;;;;;;;9.37;63.08;94361.41;5082322;28;20103;-78
2023/12/27 03:26:49;;;;;;;10.77;3.55;;;;;;;9.38;63.05;94368.28;5083658;28;20036;-78
2023/12/27 03:29:14;;;;;;;11.23;2.70;;;;;;;9.37;63.14;94378.16;5083736;28;20051;-78
2023/12/27 03:31:40;;;;;;;11.27;3.13;;;;;;;9.35;63.34;94369.66;5083513;28;20091;-78
2023/12/27 03:34:05;;;;;;;7.50;2.47;;;;;;;9.31;63.42;94376.66;5083594;28;20187;-77
2023/12/27 03:36:31;;;;;;;7.85;2.75;;;;;;;9.25;63.56;94364.53;5082400;28;20032;-78
2023/12/27 03:38:56;;;;;;;7.70;2.60;;;;;;;9.26;64.02;94376.75;5083547;28;20069;-78
2023/12/27 03:41:21;;;;;;;9.55;3.10;;;;;;;9.26;63.98;94378.59;5083314;28;20100;-78
2023/12/27 03:43:47;;;;;;;6.47;2.67;;;;;;;9.24;63.79;94377.03;5083295;28;20219;-79
2023/12/27 03:46:12;;;;;;;9.23;3.08;;;;;;;9.19;64.24;94377.09;5083375;28;20333;-79
2023/12/27 03:48:38;;;;;;;5.75;2.63;;;;;;;9.20;64.02;94377.91;5083466;28;20023;-80
2023/12/27 03:51:03;;;;;;;10.90;3.33;;;;;;;9.20;64.00;94377.91;5083118;28;20047;-78
2023/12/27 03:53:29;;;;;;;14.13;3.22;;;;;;;9.20;64.05;94381.34;5083381;28;20027;-78
2023/12/27 03:55:54;;;;;;;8.77;2.65;;;;;;;9.20;64.13;94378.69;5083183;28;20016;-78
2023/12/27 03:58:20;;;;;;;6.65;2.45;;;;;;;9.12;64.24;94373.22;5083009;28;20017;-78
2023/12/27 04:00:45;;;;;;;8.93;2.85;;;;;;;9.05;64.46;94370.97;5082838;28;20112;-78
2023/12/27 04:03:10;;;;;;;6.60;2.80;;;;;;;9.06;64.45;94358.44;5082939;28;20028;-78
2023/12/27 04:05:36;;;;;;;16.85;2.70;;;;;;;9.08;64.72;94391.66;5082851;28;20196;-78
2023/12/27 04:08:01;;;;;;;6.07;2.15;;;;;;;9.06;64.98;94396.47;5082871;28;20040;-78
2023/12/27 04:10:31;;;;;;;9.73;2.65;;;;;;;8.99;64.97;94388.06;5082903;28;20260;-80
2023/12/27 04:12:56;;;;;;;12.35;2.72;;;;;;;9.02;65.00;94379.53;5082928;28;20028;-79
2023/12/27 04:15:22;;;;;;;9.68;3.13;;;;;;;8.99;65.26;94398.69;5082621;28;20051;-79
2023/12/27 04:17:47;;;;;;;5.65;2.35;;;;;;;8.94;65.20;94380.97;5082904;28;20016;-78
2023/12/27 04:20:12;;;;;;;9.57;3.03;;;;;;;8.95;65.41;94379.88;5082709;28;20047;-78
2023/12/27 04:22:38;;;;;;;10.18;3.38;;;;;;;8.93;65.59;94390.00;5082584;28;20048;-78
2023/12/27 04:25:04;;;;;;;12.27;2.58;;;;;;;8.96;65.69;94405.41;5098303;28;20031;-78
2023/12/27 04:27:29;;;;;;;9.77;3.00;;;;;;;8.97;65.75;94403.53;5082983;28;20020;-78
2023/12/27 04:29:54;;;;;;;8.43;2.20;;;;;;;8.83;66.01;94406.09;5082479;28;20071;-78
2023/12/27 04:32:20;;;;;;;11.40;2.95;;;;;;;8.91;65.97;94415.31;5082612;28;20025;-78
2023/12/27 04:34:45;;;;;;;8.43;3.90;;;;;;;8.84;66.08;94428.97;5082493;28;20322;-78
2023/12/27 04:37:11;;;;;;;11.27;3.08;;;;;;;8.83;66.19;94424.72;5082475;28;20366;-78
2023/12/27 04:39:36;;;;;;;8.13;2.67;;;;;;;8.81;66.45;94417.06;5082296;28;20185;-78
2023/12/27 04:42:01;;;;;;;10.50;2.45;;;;;;;8.77;66.50;94423.22;5082479;28;20091;-79
2023/12/27 04:44:27;;;;;;;6.78;1.92;;;;;;;8.73;66.37;94404.41;5082555;28;20036;-79
2023/12/27 04:46:52;;;;;;;12.32;3.08;;;;;;;8.77;66.72;94426.69;5082328;28;20044;-79
2023/12/27 04:49:17;;;;;;;13.95;2.78;;;;;;;8.71;66.90;94427.00;5082518;28;20300;-78
2023/12/27 04:51:45;;;;;;;7.95;3.45;;;;;;;8.61;67.24;94410.16;5082627;28;20033;-79
2023/12/27 04:54:10;;;;;;;12.88;2.65;;;;;;;8.58;67.53;94413.38;5082503;28;20040;-80
2023/12/27 04:56:35;;;;;;;5.95;2.28;;;;;;;8.58;67.67;94410.72;5082467;28;20031;-80
2023/12/27 04:59:01;;;;;;;6.93;2.63;;;;;;;8.57;67.72;94411.78;5081309;28;20095;-79
2023/12/27 05:01:26;;;;;;;9.27;2.75;;;;;;;8.60;67.77;94411.22;5081275;28;20048;-79
2023/12/27 05:03:51;;;;;;;10.00;3.17;;;;;;;8.60;67.87;94424.50;5082048;28;20091;-79
2023/12/27 05:06:17;;;;;;;7.80;2.47;;;;;;;8.61;67.92;94420.00;5082370;28;20330;-79
2023/12/27 05:08:43;;;;;;;8.18;2.80;;;;;;;8.56;68.32;94428.03;5082535;28;20024;-80
2023/12/27 05:11:21;;;;;;;10.88;3.03;;;;;;;8.58;68.11;94431.97;5082324;28;20052;-77
2023/12/27 05:13:46;;;;;;;6.82;2.25;;;;;;;8.60;68.22;94429.81;5082090;28;20173;-78
2023/12/27 05:16:13;;;;;;;7.53;3.00;;;;;;;8.60;68.29;94448.41;5082193;28;20056;-79
2023/12/27 05:18:40;;;;;;;6.80;2.40;;;;;;;8.64;67.93;94441.44;5082285;28;20268;-78
2023/12/27 05:21:10;;;;;;;6.28;2.50;;;;;;;8.70;67.85;94444.06;5082135;28;20057;-78
2023/12/27 05:23:36;;;;;;;8.30;2.72;;;;;;;8.63;67.86;94450.50;5085904;28;20016;-78
2023/12/27 05:26:03;;;;;;;9.32;2.45;;;;;;;8.64;67.81;94444.09;5085985;28;20051;-79
2023/12/27 05:28:29;;;;;;;9.98;2.92;;;;;;;8.63;67.76;94455.03;5086114;28;20039;-78
2023/12/27 05:30:54;;;;;;;14.18;3.03;;;;;;;8.69;67.85;94458.41;5085882;28;20013;-78
2023/12/27 05:33:20;;;;;;;11.68;3.25;;;;;;;8.68;67.85;94456.84;5085875;28;20376;-78
2023/12/27 05:35:46;;;;;;;10.60;3.28;;;;;;;8.69;67.99;94467.19;5086073;28;20020;-78
2023/12/27 05:38:11;;;;;;;11.77;2.40;;;;;;;8.68;67.82;94468.25;5085712;28;20020;-77
2023/12/27 05:40:37;;;;;;;8.82;2.70;;;;;;;8.66;67.94;94469.63;5085838;28;20334;-77
2023/12/27 05:43:02;;;;;;;6.72;2.35;;;;;;;8.68;67.64;94473.56;5085563;28;20083;-77
2023/12/27 05:45:27;;;;;;;7.97;2.40;;;;;;;8.61;68.04;94479.22;5085570;28;20039;-77
2023/12/27 05:47:53;;;;;;;9.45;2.47;;;;;;;8.60;68.04;94472.31;5084204;28;20031;-77
2023/12/27 05:50:18;;;;;;;5.55;2.10;;;;;;;8.56;68.29;94473.97;5085405;28;20098;-77
2023/12/27 05:52:44;;;;;;;6.78;2.05;;;;;;;8.51;68.52;94483.88;5085269;28;20223;-77
2023/12/27 05:55:09;;;;;;;12.45;2.28;;;;;;;8.55;68.63;94504.28;5085405;28;20024;-77
2023/12/27 05:57:35;;;;;;;6.63;2.33;;;;;;;8.53;68.62;94506.44;5085376;28;20067;-78
2023/12/27 06:00:00;;;;;;;11.18;3.13;;;;;;;8.56;68.49;94513.81;5085437;28;20025;-77
2023/12/27 06:02:26;;;;;;;10.13;2.97;;;;;;;8.53;68.68;94514.41;5085318;28;20282;-78
2023/12/27 06:04:51;;;;;;;5.63;2.00;;;;;;;8.49;69.34;94518.72;5085177;28;20033;-78
2023/12/27 06:07:16;;;;;;;6.18;2.03;;;;;;;8.46;69.40;94516.59;5085170;28;20032;-77
2023/12/27 06:09:42;;;;;;;15.60;3.15;;;;;;;8.47;69.38;94512.06;5085253;28;20099;-79
2023/12/27 06:12:08;;;;;;;8.45;2.80;;;;;;;8.46;69.97;94526.44;5085000;28;20089;-79
2023/12/27 06:14:35;;;;;;;9.13;3.53;;;;;;;8.39;70.18;94529.41;5084946;28;20020;-78
2023/12/27 06:17:01;;;;;;;9.15;2.95;;;;;;;8.40;70.15;94530.97;5085279;28;20259;-79
2023/12/27 06:19:27;;;;;;;10.93;3.13;;;;;;;8.41;70.14;94528.09;5085209;28;20025;-79
2023/12/27 06:21:53;;;;;;;8.82;2.90;;;;;;;8.43;70.26;94554.38;5083657;28;20222;-79
2023/12/27 06:24:18;;;;;;;9.30;3.25;;;;;;;8.36;70.56;94548.56;5084890;28;20024;-78
2023/12/27 06:26:44;;;;;;;8.32;3.00;;;;;;;8.36;70.61;94538.72;5084659;28;20023;-78
2023/12/27 06:29:09;;;;;;;8.80;3.42;;;;;;;8.33;70.67;94541.16;5084928;28;20215;-78
2023/12/27 06:31:34;;;;;;;9.68;3.00;;;;;;;8.37;70.77;94523.59;5084809;28;20047;-79
2023/12/27 06:34:01;;;;;;;9.40;2.85;;;;;;;8.35;70.84;94523.09;5083690;28;20032;-78
2023/12/27 06:36:26;;;;;;;9.90;2.80;;;;;;;8.34;70.94;94521.50;5084718;28;20029;-78
2023/12/27 06:38:52;;;;;;;14.27;3.50;;;;;;;8.39;70.76;94516.91;5084521;28;20101;-78
2023/12/27 06:41:18;;;;;;;5.45;2.83;;;;;;;8.43;70.63;94536.56;5084470;28;20028;-79
2023/12/27 06:43:43;;;;;;;8.85;3.17;;;;;;;8.47;70.49;94542.09;5084564;28;20071;-79
2023/12/27 06:46:09;;;;;;;7.68;3.25;;;;;;;8.48;70.31;94538.38;5084426;28;20032;-80
2023/12/27 06:48:35;;;;;;;9.93;3.03;;;;;;;8.51;70.38;94537.81;5084310;28;20029;-79
2023/12/27 06:51:03;;;;;;;18.50;4.20;;;;;;;8.57;69.84;94547.31;5084773;28;20376;-80
2023/12/27 06:53:28;;;;;;;12.13;3.08;;;;;;;8.66;69.34;94544.03;5084723;28;20032;-80
2023/12/27 06:55:54;;;;;;;13.07;4.03;;;;;;;8.74;68.79;94549.50;5084338;28;20352;-80
2023/12/27 06:58:19;;;;;;;18.67;3.47;;;;;;;8.83;68.61;94560.28;5084155;28;20326;-78
2023/12/27 07:00:45;;;;;;;7.68;2.75;;;;;;;8.86;68.11;94561.59;5084298;28;20143;-78
2023/12/27 07:03:12;;;;;;;5.25;2.47;;;;;;;8.87;67.64;94576.47;5084150;28;20286;-78
2023/12/27 07:05:39;;;;;;;7.72;3.00;;;;;;;8.87;67.76;94577.25;5084365;28;20020;-79
2023/12/27 07:08:05;;;;;;;9.55;2.50;;;;;;;8.90;67.24;94576.69;5084244;28;20024;-78
2023/12/27 07:10:31;;;;;;;5.78;2.45;;;;;;;8.92;67.11;94573.75;5084087;28;20031;-78
2023/12/27 07:12:57;;;;;;;9.65;2.38;;;;;;;9.01;66.85;94590.66;5084228;28;20021;-77
2023/12/27 07:15:23;;;;;;;7.38;2.55;;;;;;;8.99;66.81;94606.88;5084053;28;20043;-76
2023/12/27 07:17:48;;;;;;;5.78;2.67;;;;;;;9.02;66.85;94611.63;5083938;28;20024;-76
2023/12/27 07:20:14;;;;;;;8.52;2.65;;;;;;;9.06;66.47;94614.53;5083770;28;20016;-76
2023/12/27 07:22:39;;;;;;;11.55;2.80;;;;;;;9.08;66.41;94630.19;5083671;28;20024;-76
2023/12/27 07:25:05;;;;;;;12.07;3.40;;;;;;;9.09;66.38;94635.22;5083487;28;20276;-76
2023/12/27 07:27:30;;;;;;;8.38;2.20;;;;;;;9.12;67.11;94628.53;5083925;28;20039;-76
2023/12/27 07:29:56;;;;;;;7.50;2.83;;;;;;;9.07;66.30;94634.72;5083745;28;20052;-76
2023/12/27 07:32:21;;;;;;;6.93;3.17;;;;;;;9.03;66.97;94633.69;5083494;28;20308;-76
2023/12/27 07:34:46;;;;;;;9.52;3.08;;;;;;;9.06;66.85;94653.59;5083628;28;20044;-76
2023/12/27 07:37:12;;;;;;;9.50;2.55;;;;;;;9.01;66.81;94647.28;5083697;28;20020;-78
2023/12/27 07:39:37;;;;;;;9.57;2.75;;;;;;;9.06;66.93;94645.63;5083428;28;20118;-77
2023/12/27 07:42:03;;;;;;;11.38;3.50;;;;;;;9.04;67.14;94629.97;5083632;28;20421;-77
2023/12/27 07:44:29;;;;;;;8.93;2.97;;;;;;;9.05;66.91;94636.88;5083081;28;20342;-77
2023/12/27 07:46:55;;;;;;;8.18;3.25;;;;;;;9.11;67.10;94627.75;5083705;28;20062;-77
2023/12/27 07:49:20;;;;;;;13.35;2.17;;;;;;;9.27;66.22;94635.56;5083335;28;20046;-77
2023/12/27 07:51:46;;;;;;;10.25;2.65;;;;;;;9.25;65.84;94625.19;5083551;28;20044;-92
2023/12/27 07:54:11;;;;;;;10.60;3.25;;;;;;;9.27;66.12;94625.69;5083176;28;20235;-76
2023/12/27 07:56:37;;;;;;;11.27;2.78;;;;;;;9.34;65.80;94623.50;5082988;28;20027;-76
2023/12/27 07:59:03;;;;;;;7.55;2.55;;;;;;;9.40;65.64;94635.66;5083215;28;20048;-76
2023/12/27 08:01:41;;;;;;;9.65;3.20;;;;;;;9.40;65.86;94648.97;5083237;28;20255;-74
2023/12/27 08:04:06;;;;;;;12.00;3.65;;;;;;;9.58;66.89;94659.88;5081612;28;20027;-74
2023/12/27 08:06:31;;;;;;;8.05;3.20;;;;;;;9.65;65.89;94649.69;5081485;28;20087;-74
2023/12/27 08:08:57;;;;;;;9.90;2.88;;;;;;;9.78;64.64;94643.63;5082930;28;20025;-78
2023/12/27 08:11:23;;;;;;;13.57;3.15;;;;;;;9.73;64.21;94646.38;5082799;28;20035;-76
2023/12/27 08:13:48;;;;;;;9.55;3.03;;;;;;;9.73;63.65;94651.72;5082041;28;20032;-76
2023/12/27 08:16:14;;;;;;;9.05;2.20;;;;;;;9.82;63.62;94649.97;5082649;28;20016;-76
2023/12/27 08:18:39;;;;;;;10.13;2.70;;;;;;;9.83;62.86;94646.25;5082760;28;20020;-74
2023/12/27 08:21:05;;;;;;;11.18;2.53;;;;;;;9.80;62.71;94662.78;5082662;28;20314;-75
2023/12/27 08:23:30;;;;;;;12.20;3.55;;;;;;;9.90;62.76;94655.72;5082793;28;20024;-76
2023/12/27 08:25:57;;;;;;;13.30;2.47;;;;;;;9.90;62.41;94661.84;5080860;28;20065;-76
2023/12/27 08:28:23;;;;;;;8.40;2.83;;;;;;;9.94;62.31;94667.38;5079512;28;20025;-76
2023/12/27 08:30:49;;;;;;;6.20;2.55;;;;;;;9.99;62.19;94669.97;5080781;28;20020;-76
2023/12/27 08:33:15;;;;;;;13.57;2.67;;;;;;;10.09;62.16;94661.81;5079953;28;20020;-76
2023/12/27 08:35:40;;;;;;;8.35;2.50;;;;;;;10.14;62.15;94666.31;5081517;28;20066;-76
2023/12/27 08:38:06;;;;;;;5.57;1.85;;;;;;;10.13;60.70;94670.81;5082109;28;20231;-76
2023/12/27 08:40:32;;;;;;;4.97;1.65;;;;;;;10.18;61.05;94680.63;5082580;28;20284;-76
2023/12/27 08:43:00;;;;;;;16.35;3.25;;;;;;;10.24;62.05;94693.56;5082687;28;20319;-76
2023/12/27 08:45:25;;;;;;;5.18;2.20;;;;;;;10.15;61.16;94695.28;5082319;28;20323;-76
2023/12/27 08:47:50;;;;;;;9.18;2.58;;;;;;;10.18;61.32;94705.38;5082480;28;20024;-78
2023/12/27 08:50:16;;;;;;;15.30;2.65;;;;;;;10.15;61.42;94702.50;5082644;28;20327;-81
2023/12/27 08:52:41;;;;;;;12.55;3.03;;;;;;;10.14;61.49;94711.59;5082879;28;20115;-87
2023/12/27 08:55:10;;;;;;;10.38;2.80;;;;;;;10.14;61.52;94715.03;5083053;28;20012;-77
2023/12/27 08:57:36;;;;;;;8.00;2.90;;;;;;;10.19;61.37;94711.50;5085536;28;20234;-77
2023/12/27 09:00:01;;;;;;;13.50;3.17;;;;;;;10.19;61.75;94706.94;5085609;28;20024;-76
2023/12/27 09:02:27;;;;;;;14.63;2.95;;;;;;;10.31;62.10;94705.75;5086422;28;20113;-76
2023/12/27 09:04:52;;;;;;;11.80;2.25;;;;;;;10.39;61.55;94707.75;5086560;28;20323;-76
2023/12/27 09:07:18;;;;;;;11.77;2.75;;;;;;;10.43;61.22;94706.09;5086319;28;20016;-76
2023/12/27 09:09:43;;;;;;;13.23;2.92;;;;;;;10.44;61.29;94703.16;5086549;28;20024;-74
2023/12/27 09:12:09;;;;;;;5.22;2.83;;;;;;;10.45;61.28;94706.59;5086323;28;20035;-78
2023/12/27 09:14:38;;;;;;;6.70;2.65;;;;;;;10.46;60.95;94705.50;5086318;28;20029;-78
2023/12/27 09:17:03;;;;;;;11.77;2.58;;;;;;;10.41;61.47;94708.25;5086507;28;20020;-78
2023/12/27 09:19:29;;;;;;;9.57;2.67;;;;;;;10.47;61.43;94687.66;5086376;28;20271;-84
2023/12/27 09:21:55;;;;;;;7.88;2.40;;;;;;;10.48;61.19;94690.00;5086235;28;20032;-77
2023/12/27 09:24:20;;;;;;;12.88;2.70;;;;;;;10.52;60.97;94675.03;5086034;28;20313;-78
2023/12/27 09:26:48;;;;;;;11.73;2.72;;;;;;;10.53;60.74;94689.94;5085758;28;20021;-75
2023/12/27 09:29:13;;;;;;;10.30;2.05;;;;;;;10.54;59.78;94670.22;5085055;28;20024;-79
2023/12/27 09:31:40;;;;;;;5.47;2.42;;;;;;;10.58;58.80;94675.72;5084877;28;20256;-78
2023/12/27 09:34:06;;;;;;;6.45;2.35;;;;;;;10.70;58.83;94667.28;5085459;28;20012;-77
2023/12/27 09:36:32;;;;;;;9.85;2.83;;;;;;;10.64;58.98;94670.03;5085083;28;20330;-78
2023/12/27 09:38:58;;;;;;;7.88;2.72;;;;;;;10.67;58.64;94678.53;5085969;28;20222;-78
2023/12/27 09:41:23;;;;;;;10.38;3.75;;;;;;;10.74;58.66;94674.38;5085231;28;20077;-76
2023/12/27 09:43:51;;;;;;;12.00;2.72;;;;;;;10.80;58.50;94661.75;5085840;28;20180;-81
2023/12/27 09:46:18;;;;;;;4.40;2.25;;;;;;;10.83;58.00;94661.19;5084218;28;20028;-79
2023/12/27 09:48:45;;;;;;;7.50;1.98;;;;;;;10.75;57.96;94645.88;5084302;28;20100;-79
2023/12/27 09:51:11;;;;;;;7.55;2.40;;;;;;;10.86;57.83;94649.91;5085587;28;20098;-79
2023/12/27 09:53:40;;;;;;;10.63;2.30;;;;;;;10.90;57.38;94642.91;5084440;28;20354;-79
2023/12/27 09:56:07;;;;;;;6.57;2.50;;;;;;;10.92;57.39;94647.94;5084829;28;20020;-79
2023/12/27 09:58:36;;;;;;;8.35;2.55;;;;;;;10.83;57.29;94650.53;5084187;28;20082;-79
2023/12/27 10:01:02;;;;;;;7.78;2.90;;;;;;;10.91;57.24;94654.34;5084119;28;20036;-79
2023/12/27 10:03:38;;;;;;;12.20;2.92;;;;;;;10.95;57.37;94661.50;5083543;28;20287;-79
2023/12/27 10:06:34;;;;;;;8.20;2.00;;;;;;;11.00;57.24;94650.72;5084967;28;20047;-79
2023/12/27 10:09:00;;;;;;;9.23;2.65;;;;;;;11.04;57.31;94656.25;5084865;28;20032;-80
2023/12/27 10:11:26;;;;;;;6.00;2.22;;;;;;;11.11;57.10;94661.97;5085229;28;20055;-80
2023/12/27 10:13:51;;;;;;;15.27;2.40;;;;;;;11.21;56.84;94671.66;5085545;28;20355;-80
2023/12/27 10:16:17;;;;;;;9.73;2.78;;;;;;;11.22;57.21;94667.91;5085399;28;20024;-79
2023/12/27 10:18:46;;;;;;;5.32;1.80;;;;;;;11.22;56.94;94670.59;5085472;28;20016;-80
2023/12/27 10:21:13;;;;;;;5.28;2.28;;;;;;;11.21;56.68;94675.16;5084910;28;20095;-80
2023/12/27 10:23:38;;;;;;;7.75;1.77;;;;;;;11.30;56.82;94663.78;5084774;28;20143;-79
2023/12/27 10:26:05;;;;;;;9.07;3.30;;;;;;;11.41;56.09;94657.13;5085249;28;20032;-79
2023/12/27 10:28:30;;;;;;;6.78;2.40;;;;;;;11.33;57.69;94655.94;5085405;28;20034;-79
2023/12/27 10:30:56;;;;;;;7.68;2.08;;;;;;;11.36;56.93;94651.91;5085308;28;20044;-80
2023/12/27 10:33:22;;;;;;;12.32;2.42;;;;;;;11.41;56.65;94627.78;5084808;28;20070;-78
2023/12/27 10:35:47;;;;;;;5.53;2.20;;;;;;;11.45;57.15;94620.75;5084051;28;20047;-79
2023/12/27 10:38:13;;;;;;;7.05;2.00;;;;;;;11.51;56.52;94618.75;5083586;28;20286;-79
2023/12/27 10:40:41;;;;;;;5.75;2.22;;;;;;;11.57;56.48;94622.91;5083564;28;20037;-80
2023/12/27 10:43:08;;;;;;;6.40;2.47;;;;;;;11.58;55.35;94621.78;5084285;28;20376;-79
2023/12/27 10:45:34;;;;;;;16.13;3.45;;;;;;;11.57;55.37;94620.22;5083372;28;20073;-79
2023/12/27 10:48:01;;;;;;;10.80;3.83;;;;;;;11.51;55.79;94619.53;5084730;28;20028;-79
2023/12/27 10:50:28;;;;;;;9.45;2.70;;;;;;;11.56;55.83;94626.66;5084842;28;20089;-79
2023/12/27 10:52:56;;;;;;;10.15;2.53;;;;;;;11.59;55.06;94623.38;5084861;28;20301;-80
2023/12/27 10:55:23;;;;;;;5.45;2.10;;;;;;;11.58;55.09;94624.47;5083200;28;20272;-79
2023/12/27 10:57:53;;;;;;;9.15;1.73;;;;;;;11.58;55.38;94627.94;5084608;28;20195;-79
2023/12/27 11:00:20;;;;;;;11.05;1.88;;;;;;;11.54;54.10;94626.97;5083154;28;20096;-80
2023/12/27 11:02:47;;;;;;;7.57;1.85;;;;;;;11.49;54.84;94634.28;5084749;28;20333;-79
2023/12/27 11:05:15;;;;;;;5.80;2.00;;;;;;;11.51;55.03;94629.44;5084504;28;20028;-79
2023/12/27 11:07:42;;;;;;;12.02;2.40;;;;;;;11.54;54.74;94626.16;5084474;28;20035;-79
2023/12/27 11:10:09;;;;;;;15.00;4.47;;;;;;;11.55;54.16;94639.22;5084311;28;20077;-80
2023/12/27 11:12:37;;;;;;;16.85;4.85;;;;;;;11.55;54.66;94641.09;5084262;28;20024;-79
2023/12/27 11:15:03;;;;;;;6.13;2.72;;;;;;;11.52;54.52;94645.16;5084481;28;20193;-79
2023/12/27 11:17:31;;;;;;;8.18;2.10;;;;;;;11.56;54.80;94640.81;5083550;28;20310;-79
2023/12/27 11:19:57;;;;;;;10.50;3.45;;;;;;;11.56;54.93;94634.66;5083699;28;20165;-80
2023/12/27 11:22:23;;;;;;;7.72;2.47;;;;;;;11.60;55.60;94651.66;5084047;28;20055;-79
2023/12/27 11:24:49;;;;;;;9.98;2.85;;;;;;;11.62;55.85;94644.94;5084033;28;20028;-79
2023/12/27 11:27:18;;;;;;;9.32;2.53;;;;;;;11.72;55.62;94643.91;5083885;28;20035;-80
2023/12/27 11:29:44;;;;;;;8.45;2.40;;;;;;;11.75;55.36;94640.66;5083783;28;20035;-78